createdAt,value
2022-10-13T00:01:49.334Z,11.55
2022-10-13T00:04:16.698Z,8.82
2022-10-13T00:06:43.187Z,9.82
2022-10-13T00:09:09.671Z,9.35
2022-10-13T00:11:37.674Z,8.48
2022-10-13T00:14:05.428Z,9.07
2022-10-13T00:16:32.812Z,17.50
2022-10-13T00:19:00.423Z,11.65
2022-10-13T00:21:28.203Z,12.15
2022-10-13T00:23:55.338Z,11.30
2022-10-13T00:26:24.298Z,8.40
2022-10-13T00:28:54.331Z,8.35
2022-10-13T00:31:23.766Z,11.95
2022-10-13T00:33:50.920Z,7.28
2022-10-13T00:36:17.878Z,9.27
2022-10-13T00:38:44.499Z,11.00
2022-10-13T00:41:11.152Z,14.07
2022-10-13T00:44:01.338Z,14.38
2022-10-13T00:46:33.672Z,10.88
2022-10-13T00:49:03.254Z,13.13
2022-10-13T00:51:32.518Z,12.98
2022-10-13T00:53:59.723Z,8.45
2022-10-13T00:56:26.751Z,9.20
2022-10-13T00:58:53.771Z,7.28
2022-10-13T01:01:20.258Z,11.85
2022-10-13T01:03:46.789Z,6.57
2022-10-13T01:06:14.384Z,5.53
2022-10-13T01:08:40.822Z,10.18
2022-10-13T01:11:24.057Z,9.05
2022-10-13T01:14:10.751Z,7.28
2022-10-13T01:17:09.819Z,6.90
2022-10-13T01:19:51.313Z,12.70
2022-10-13T01:22:29.927Z,15.18
2022-10-13T01:25:05.135Z,12.70
2022-10-13T01:27:51.735Z,10.00
2022-10-13T01:30:19.356Z,13.43
2022-10-13T01:33:13.522Z,8.10
2022-10-13T01:35:42.751Z,12.80
2022-10-13T01:38:15.969Z,8.32
2022-10-13T01:40:51.931Z,7.65
2022-10-13T01:43:25.481Z,10.43
2022-10-13T01:46:00.699Z,9.27
2022-10-13T01:48:28.399Z,7.60
2022-10-13T01:50:56.198Z,8.75
2022-10-13T01:53:23.726Z,7.70
2022-10-13T01:55:57.261Z,8.55
2022-10-13T01:58:25.503Z,11.25
2022-10-13T02:01:06.786Z,11.20
2022-10-13T02:03:59.087Z,11.00
2022-10-13T02:06:33.135Z,8.68
2022-10-13T02:09:22.202Z,9.30
2022-10-13T02:11:54.772Z,8.50
2022-10-13T02:14:24.783Z,6.68
2022-10-13T02:16:52.075Z,9.48
2022-10-13T02:19:19.179Z,8.05
2022-10-13T02:21:46.204Z,9.25
2022-10-13T02:24:14.231Z,15.48
2022-10-13T02:26:42.001Z,10.30
2022-10-13T02:29:10.104Z,7.70
2022-10-13T02:31:37.519Z,9.73
2022-10-13T02:34:04.931Z,8.50
2022-10-13T02:36:31.524Z,10.73
2022-10-13T02:38:58.033Z,8.70
2022-10-13T02:41:24.900Z,12.32
2022-10-13T02:43:51.378Z,14.85
2022-10-13T02:46:17.838Z,8.88
2022-10-13T02:48:44.401Z,11.95
2022-10-13T02:51:10.844Z,7.72
2022-10-13T02:53:37.325Z,8.35
2022-10-13T02:56:03.813Z,7.05
2022-10-13T02:58:30.211Z,11.65
2022-10-13T03:01:09.698Z,9.15
2022-10-13T03:03:36.595Z,13.02
2022-10-13T03:06:03.197Z,7.90
2022-10-13T03:08:32.193Z,14.02
2022-10-13T03:10:58.766Z,9.45
2022-10-13T03:13:25.507Z,7.85
2022-10-13T03:15:52.014Z,9.07
2022-10-13T03:18:18.574Z,6.13
2022-10-13T03:20:45.038Z,10.95
2022-10-13T03:23:11.704Z,10.02
2022-10-13T03:25:38.746Z,11.05
2022-10-13T03:28:05.182Z,11.07
2022-10-13T03:30:32.681Z,6.95
2022-10-13T03:32:59.123Z,11.10
2022-10-13T03:35:25.615Z,7.88
2022-10-13T03:37:52.142Z,13.43
2022-10-13T03:40:18.617Z,12.40
2022-10-13T03:42:45.026Z,9.15
2022-10-13T03:45:11.791Z,14.75
2022-10-13T03:47:38.231Z,9.15
2022-10-13T03:50:06.050Z,8.43
2022-10-13T03:52:32.909Z,8.73
2022-10-13T03:54:59.343Z,10.57
2022-10-13T03:57:25.778Z,7.63
2022-10-13T03:59:52.362Z,9.65
2022-10-13T04:02:19.123Z,9.40
2022-10-13T04:04:45.708Z,9.43
2022-10-13T04:07:12.921Z,7.32
2022-10-13T04:09:39.406Z,10.75
2022-10-13T04:12:06.169Z,11.27
2022-10-13T04:14:32.939Z,14.55
2022-10-13T04:17:02.450Z,15.68
2022-10-13T04:19:28.951Z,12.50
2022-10-13T04:21:55.427Z,11.10
2022-10-13T04:24:21.855Z,10.98
2022-10-13T04:26:48.299Z,9.93
2022-10-13T04:29:14.991Z,8.50
2022-10-13T04:31:43.848Z,11.05
2022-10-13T04:34:11.095Z,9.82
2022-10-13T04:36:38.015Z,10.07
2022-10-13T04:39:04.891Z,14.68
2022-10-13T04:41:31.534Z,10.75
2022-10-13T04:43:59.169Z,7.70
2022-10-13T04:46:26.948Z,10.43
2022-10-13T04:48:54.794Z,9.88
2022-10-13T04:51:23.849Z,14.93
2022-10-13T04:53:58.625Z,10.43
2022-10-13T04:56:25.973Z,8.73
2022-10-13T04:58:52.853Z,11.25
2022-10-13T05:01:22.526Z,10.38
2022-10-13T05:03:59.990Z,9.80
2022-10-13T05:06:32.145Z,13.25
2022-10-13T05:08:59.112Z,14.50
2022-10-13T05:11:26.959Z,9.98
2022-10-13T05:13:53.598Z,12.27
2022-10-13T05:16:21.326Z,9.45
2022-10-13T05:18:48.978Z,11.55
2022-10-13T05:21:21.081Z,13.20
2022-10-13T05:23:47.896Z,6.78
2022-10-13T05:26:17.467Z,14.82
2022-10-13T05:28:44.273Z,10.23
2022-10-13T05:31:13.287Z,9.68
2022-10-13T05:33:40.546Z,8.65
2022-10-13T05:36:09.460Z,9.77
2022-10-13T05:38:36.066Z,13.88
2022-10-13T05:41:04.320Z,8.70
2022-10-13T05:43:32.166Z,16.30
2022-10-13T05:45:59.748Z,8.38
2022-10-13T05:48:27.939Z,12.05
2022-10-13T05:50:55.267Z,15.38
2022-10-13T05:53:24.192Z,14.02
2022-10-13T05:55:51.587Z,14.00
2022-10-13T05:58:18.468Z,14.43
2022-10-13T06:00:45.029Z,16.05
2022-10-13T06:03:16.559Z,11.60
2022-10-13T06:05:45.340Z,16.52
2022-10-13T06:08:11.877Z,13.27
2022-10-13T06:10:38.488Z,14.13
2022-10-13T06:13:05.026Z,13.10
2022-10-13T06:15:32.992Z,12.63
2022-10-13T06:18:00.482Z,11.65
2022-10-13T06:20:27.804Z,12.35
2022-10-13T06:22:55.643Z,18.40
2022-10-13T06:25:22.290Z,10.25
2022-10-13T06:27:48.792Z,10.55
2022-10-13T06:30:15.437Z,8.57
2022-10-13T06:32:42.891Z,11.35
2022-10-13T06:35:09.523Z,12.07
2022-10-13T06:37:35.960Z,19.95
2022-10-13T06:40:02.606Z,11.48
2022-10-13T06:42:31.821Z,13.48
2022-10-13T06:44:58.281Z,13.32
2022-10-13T06:47:24.840Z,13.48
2022-10-13T06:49:51.292Z,18.05
2022-10-13T06:52:18.067Z,14.50
2022-10-13T06:54:45.408Z,14.40
2022-10-13T06:57:12.466Z,15.00
2022-10-13T06:59:39.051Z,12.80
2022-10-13T07:02:05.499Z,10.18
2022-10-13T07:04:32.054Z,11.65
2022-10-13T07:06:58.569Z,10.95
2022-10-13T07:09:25.876Z,16.75
2022-10-13T07:11:52.309Z,17.15
2022-10-13T07:14:18.743Z,16.10
2022-10-13T07:16:46.095Z,17.30
2022-10-13T07:19:12.603Z,13.65
2022-10-13T07:21:39.080Z,15.13
2022-10-13T07:24:06.024Z,17.00
2022-10-13T07:26:34.004Z,9.45
2022-10-13T07:29:00.970Z,12.32
2022-10-13T07:31:27.843Z,10.85
2022-10-13T07:33:54.686Z,12.15
2022-10-13T07:36:23.158Z,11.43
2022-10-13T07:38:50.088Z,14.05
2022-10-13T07:41:16.547Z,12.18
2022-10-13T07:43:43.121Z,15.07
2022-10-13T07:46:13.174Z,21.58
2022-10-13T07:48:39.917Z,16.25
2022-10-13T07:51:07.984Z,11.43
2022-10-13T07:53:36.315Z,12.60
2022-10-13T07:56:04.597Z,13.85
2022-10-13T07:58:31.063Z,20.65
2022-10-13T08:00:59.553Z,19.48
2022-10-13T08:03:27.272Z,13.57
2022-10-13T08:05:54.576Z,13.73
2022-10-13T08:08:21.852Z,11.02
2022-10-13T08:10:48.443Z,17.95
2022-10-13T08:13:15.031Z,10.70
2022-10-13T08:15:43.175Z,12.23
2022-10-13T08:18:10.598Z,14.07
2022-10-13T08:20:43.499Z,14.52
2022-10-13T08:23:12.222Z,13.85
2022-10-13T08:25:42.656Z,10.43
2022-10-13T08:28:18.241Z,11.65
2022-10-13T08:30:45.652Z,10.52
2022-10-13T08:33:12.853Z,12.05
2022-10-13T08:35:39.765Z,12.75
2022-10-13T08:38:07.648Z,9.80
2022-10-13T08:40:34.553Z,19.52
2022-10-13T08:43:02.551Z,11.43
2022-10-13T08:45:45.926Z,11.32
2022-10-13T08:48:23.644Z,15.70
2022-10-13T08:50:53.855Z,20.52
2022-10-13T08:53:32.218Z,11.88
2022-10-13T08:56:08.850Z,15.20
2022-10-13T08:58:37.701Z,16.63
2022-10-13T09:01:15.042Z,20.63
2022-10-13T09:03:49.197Z,14.27
2022-10-13T09:06:31.715Z,13.43
2022-10-13T09:09:01.257Z,14.63
2022-10-13T09:11:34.097Z,13.45
2022-10-13T09:14:04.171Z,14.32
2022-10-13T09:16:37.503Z,11.95
2022-10-13T09:19:15.821Z,11.55
2022-10-13T09:21:42.380Z,13.32
2022-10-13T09:24:15.249Z,15.55
2022-10-13T09:26:41.982Z,21.20
2022-10-13T09:29:17.974Z,16.67
2022-10-13T09:31:44.746Z,17.20
2022-10-13T09:34:15.580Z,16.48
2022-10-13T09:36:57.302Z,15.13
2022-10-13T09:39:23.806Z,20.35
2022-10-13T09:41:50.318Z,14.02
2022-10-13T09:44:23.089Z,10.93
2022-10-13T09:46:54.312Z,14.93
2022-10-13T09:49:40.552Z,13.88
2022-10-13T09:52:13.213Z,14.57
2022-10-13T09:54:39.738Z,20.77
2022-10-13T09:57:14.847Z,15.38
2022-10-13T09:59:44.864Z,11.60
2022-10-13T10:02:23.673Z,19.98
2022-10-13T10:04:53.771Z,19.05
2022-10-13T10:07:23.520Z,16.95
2022-10-13T10:10:05.424Z,18.25
2022-10-13T10:12:38.250Z,15.98
2022-10-13T10:15:17.299Z,15.82
2022-10-13T10:17:52.305Z,14.98
2022-10-13T10:20:38.629Z,13.82
2022-10-13T10:23:20.629Z,13.75
2022-10-13T10:25:50.820Z,14.88
2022-10-13T10:28:40.429Z,12.90
2022-10-13T10:31:21.676Z,15.88
2022-10-13T10:33:48.242Z,13.60
2022-10-13T10:36:20.712Z,19.15
2022-10-13T10:38:52.704Z,15.98
2022-10-13T10:41:58.613Z,16.52
2022-10-13T10:44:31.637Z,12.52
2022-10-13T10:47:03.073Z,10.82
2022-10-13T10:49:34.938Z,13.50
2022-10-13T10:52:03.620Z,17.45
2022-10-13T10:54:52.041Z,15.43
2022-10-13T10:57:29.398Z,16.63
2022-10-13T11:00:05.863Z,14.43
2022-10-13T11:02:44.268Z,19.50
2022-10-13T11:05:12.335Z,14.38
2022-10-13T11:07:38.781Z,15.27
2022-10-13T11:10:14.846Z,12.45
2022-10-13T11:12:47.119Z,12.50
2022-10-13T11:23:12.948Z,16.02
2022-10-13T11:25:44.578Z,12.60
2022-10-13T11:28:22.978Z,11.57
2022-10-13T11:30:58.144Z,12.27
2022-10-13T11:33:39.672Z,9.30
2022-10-13T11:36:30.756Z,11.50
2022-10-13T11:39:07.425Z,11.52
2022-10-13T11:41:42.306Z,10.05
2022-10-13T11:44:21.780Z,11.40
2022-10-13T11:47:12.920Z,14.00
2022-10-13T11:49:57.675Z,11.70
2022-10-13T11:52:58.796Z,13.98
2022-10-13T11:55:53.377Z,10.60
2022-10-13T11:58:22.596Z,8.45
2022-10-13T12:01:07.438Z,13.20
2022-10-13T12:03:36.439Z,11.25
2022-10-13T12:06:17.422Z,12.52
2022-10-13T12:08:49.139Z,10.77
2022-10-13T12:11:27.279Z,16.08
2022-10-13T12:13:53.911Z,10.60
2022-10-13T12:16:21.195Z,10.38
2022-10-13T12:18:48.067Z,9.18
2022-10-13T12:21:21.198Z,11.30
2022-10-13T12:23:49.405Z,12.68
2022-10-13T12:26:18.157Z,12.40
2022-10-13T12:29:00.849Z,7.35
2022-10-13T12:31:31.095Z,10.98
2022-10-13T12:34:01.735Z,6.55
2022-10-13T12:36:33.210Z,10.98
2022-10-13T12:39:05.406Z,10.27
2022-10-13T12:41:34.844Z,10.55
2022-10-13T12:44:05.637Z,8.82
2022-10-13T12:46:37.871Z,7.03
2022-10-13T12:49:06.094Z,13.18
2022-10-13T12:51:33.908Z,8.93
2022-10-13T12:54:02.070Z,15.52
2022-10-13T12:56:30.709Z,7.88
2022-10-13T12:58:58.176Z,10.00
2022-10-13T13:01:31.803Z,10.05
2022-10-13T13:04:18.020Z,14.23
2022-10-13T13:07:01.793Z,9.48
2022-10-13T13:09:32.078Z,6.03
2022-10-13T13:12:10.626Z,7.30
2022-10-13T13:14:39.790Z,5.93
2022-10-13T13:17:45.417Z,7.90
2022-10-13T13:20:23.587Z,7.40
2022-10-13T13:22:50.933Z,11.15
2022-10-13T13:25:17.440Z,8.95
2022-10-13T13:27:43.949Z,13.32
2022-10-13T13:30:12.500Z,5.80
2022-10-13T13:32:39.105Z,12.75
2022-10-13T13:35:06.446Z,10.02
2022-10-13T13:37:40.519Z,12.38
2022-10-13T13:40:08.089Z,9.65
2022-10-13T13:42:34.543Z,13.70
2022-10-13T13:45:01.081Z,6.25
2022-10-13T13:47:28.541Z,10.30
2022-10-13T13:49:56.784Z,11.85
2022-10-13T13:52:25.376Z,12.18
2022-10-13T13:54:52.331Z,11.02
2022-10-13T13:57:19.516Z,14.38
2022-10-13T13:59:46.282Z,14.55
2022-10-13T14:02:15.797Z,7.57
2022-10-13T14:04:42.740Z,12.23
2022-10-13T14:07:09.973Z,7.75
2022-10-13T14:09:36.941Z,8.00
2022-10-13T14:12:03.732Z,12.82
2022-10-13T14:14:31.872Z,12.38
2022-10-13T14:16:59.546Z,13.82
2022-10-13T14:19:26.040Z,11.55
2022-10-13T14:21:52.599Z,7.50
2022-10-13T14:24:19.512Z,8.85
2022-10-13T14:26:46.061Z,10.60
2022-10-13T14:29:13.537Z,9.20
2022-10-13T14:31:40.492Z,10.32
2022-10-13T14:34:06.986Z,10.43
2022-10-13T14:36:35.519Z,10.65
2022-10-13T14:39:02.159Z,14.30
2022-10-13T14:41:28.715Z,7.30
2022-10-13T14:43:56.144Z,8.95
2022-10-13T14:46:23.089Z,8.55
2022-10-13T14:48:49.990Z,8.95
2022-10-13T14:51:17.052Z,10.13
2022-10-13T14:53:45.024Z,7.80
2022-10-13T14:56:20.701Z,7.20
2022-10-13T14:58:48.602Z,6.72
2022-10-13T15:01:15.911Z,7.32
2022-10-13T15:03:43.573Z,6.57
2022-10-13T15:06:17.525Z,13.02
2022-10-13T15:08:44.844Z,11.07
2022-10-13T15:11:11.954Z,6.90
2022-10-13T15:13:39.205Z,9.05
2022-10-13T15:16:06.786Z,15.57
2022-10-13T15:18:35.323Z,5.22
2022-10-13T15:21:01.821Z,8.40
2022-10-13T15:23:28.393Z,10.40
2022-10-13T15:25:57.647Z,9.93
2022-10-13T15:28:25.706Z,9.57
2022-10-13T15:30:53.382Z,6.65
2022-10-13T15:33:20.135Z,8.10
2022-10-13T15:35:50.619Z,14.38
2022-10-13T15:38:18.217Z,11.90
2022-10-13T15:40:45.041Z,8.98
2022-10-13T15:43:11.869Z,9.07
2022-10-13T15:45:39.591Z,11.43
2022-10-13T15:48:06.895Z,11.32
2022-10-13T15:50:34.896Z,8.77
2022-10-13T15:53:01.550Z,9.70
2022-10-13T15:55:28.806Z,5.63
2022-10-13T15:57:55.421Z,11.93
2022-10-13T16:00:23.553Z,9.45
2022-10-13T16:02:51.445Z,7.68
2022-10-13T16:05:18.869Z,8.20
2022-10-13T16:07:45.717Z,9.15
2022-10-13T16:10:13.876Z,10.10
2022-10-13T16:12:43.306Z,6.38
2022-10-13T16:15:12.192Z,6.47
2022-10-13T16:17:38.690Z,13.55
2022-10-13T16:20:06.432Z,8.23
2022-10-13T16:22:33.060Z,6.70
2022-10-13T16:24:59.561Z,9.70
2022-10-13T16:27:26.127Z,15.68
2022-10-13T16:29:54.466Z,11.30
2022-10-13T16:32:21.296Z,8.93
2022-10-13T16:34:48.400Z,8.45
2022-10-13T16:37:14.893Z,12.02
2022-10-13T16:39:43.804Z,9.15
2022-10-13T16:42:11.950Z,9.35
2022-10-13T16:44:38.743Z,8.20
2022-10-13T16:47:06.512Z,11.57
2022-10-13T16:49:33.857Z,10.68
2022-10-13T16:52:00.586Z,10.80
2022-10-13T16:54:27.061Z,8.15
2022-10-13T16:56:53.534Z,11.50
2022-10-13T16:59:20.907Z,9.43
2022-10-13T17:01:48.437Z,9.80
2022-10-13T17:04:18.535Z,10.98
2022-10-13T17:06:48.400Z,9.30
2022-10-13T17:09:14.969Z,7.90
2022-10-13T17:11:42.738Z,7.57
2022-10-13T17:14:09.389Z,10.93
2022-10-13T17:16:36.093Z,6.47
2022-10-13T17:19:02.908Z,9.70
2022-10-13T17:21:29.441Z,11.60
2022-10-13T17:23:59.572Z,7.68
2022-10-13T17:26:26.142Z,13.00
2022-10-13T17:28:54.488Z,9.73
2022-10-13T17:31:22.820Z,7.13
2022-10-13T17:33:49.864Z,6.32
2022-10-13T17:36:27.843Z,9.63
2022-10-13T17:38:56.497Z,8.35
2022-10-13T17:41:24.108Z,7.95
2022-10-13T17:43:51.620Z,9.55
2022-10-13T17:49:11.670Z,8.55
2022-10-13T17:51:39.509Z,6.15
2022-10-13T17:54:07.428Z,8.80
2022-10-13T17:56:35.634Z,11.55
2022-10-13T17:59:02.423Z,6.68
2022-10-13T18:01:31.874Z,10.02
2022-10-13T18:04:00.542Z,16.02
2022-10-13T18:06:40.726Z,11.30
2022-10-13T18:09:10.785Z,10.65
2022-10-13T18:11:38.046Z,8.63
2022-10-13T18:14:08.286Z,11.05
2022-10-13T18:16:35.769Z,16.85
2022-10-13T18:19:02.668Z,13.25
2022-10-13T18:21:29.507Z,14.00
2022-10-13T18:23:58.400Z,11.75
2022-10-13T18:26:26.672Z,9.15
2022-10-13T18:28:53.517Z,11.27
2022-10-13T18:31:21.380Z,12.68
2022-10-13T18:33:48.165Z,8.90
2022-10-13T18:36:35.850Z,8.07
2022-10-13T18:39:05.911Z,13.93
2022-10-13T18:41:32.867Z,15.90
2022-10-13T18:43:59.507Z,20.20
2022-10-13T18:46:26.122Z,12.68
2022-10-13T18:48:52.658Z,14.68
2022-10-13T18:51:22.390Z,14.93
2022-10-13T18:53:50.615Z,14.38
2022-10-13T18:56:19.915Z,17.75
2022-10-13T18:58:46.810Z,13.20
2022-10-13T19:01:15.876Z,10.43
2022-10-13T19:03:42.903Z,13.63
2022-10-13T19:06:11.825Z,14.43
2022-10-13T19:08:38.733Z,17.60
2022-10-13T19:11:12.669Z,14.60
2022-10-13T19:13:39.861Z,8.57
2022-10-13T19:16:07.202Z,11.82
2022-10-13T19:18:34.330Z,15.82
2022-10-13T19:21:00.937Z,13.75
2022-10-13T19:23:27.632Z,17.02
2022-10-13T19:25:54.852Z,13.55
2022-10-13T19:28:21.979Z,10.40
2022-10-13T19:30:48.686Z,15.05
2022-10-13T19:33:16.068Z,13.05
2022-10-13T19:35:44.958Z,16.42
2022-10-13T19:38:12.269Z,11.63
2022-10-13T19:40:43.848Z,9.93
2022-10-13T19:43:10.525Z,11.70
2022-10-13T19:45:36.993Z,11.75
2022-10-13T19:48:03.920Z,16.38
2022-10-13T19:50:36.365Z,12.68
2022-10-13T19:53:02.949Z,10.05
2022-10-13T19:55:30.849Z,9.65
2022-10-13T19:57:57.284Z,10.98
2022-10-13T20:00:23.781Z,13.13
2022-10-13T20:02:50.884Z,15.52
2022-10-13T20:05:19.931Z,14.07
2022-10-13T20:07:49.787Z,14.95
2022-10-13T20:10:16.313Z,13.23
2022-10-13T20:12:42.763Z,15.13
2022-10-13T20:15:09.342Z,12.82
2022-10-13T20:17:35.805Z,14.10
2022-10-13T20:20:02.304Z,12.13
2022-10-13T20:22:28.846Z,14.07
2022-10-13T20:24:59.657Z,17.90
2022-10-13T20:27:26.592Z,18.02
2022-10-13T20:29:54.047Z,15.07
2022-10-13T20:32:20.908Z,12.30
2022-10-13T20:34:47.368Z,18.15
2022-10-13T20:37:14.228Z,22.05
2022-10-13T20:39:41.935Z,14.85
2022-10-13T20:42:08.538Z,17.98
2022-10-13T20:44:35.005Z,14.05
2022-10-13T20:47:01.549Z,14.25
2022-10-13T20:49:28.028Z,14.82
2022-10-13T20:51:54.519Z,17.08
2022-10-13T20:54:21.805Z,15.70
2022-10-13T20:56:48.311Z,19.17
2022-10-13T20:59:14.907Z,20.38
2022-10-13T21:01:41.994Z,18.23
2022-10-13T21:04:08.564Z,19.65
2022-10-13T21:06:35.894Z,21.95
2022-10-13T21:09:03.916Z,19.75
2022-10-13T21:11:30.381Z,15.73
2022-10-13T21:13:57.485Z,21.77
2022-10-13T21:16:27.965Z,19.95
2022-10-13T21:18:55.910Z,24.00
2022-10-13T21:21:24.842Z,20.52
2022-10-13T21:23:55.900Z,18.67
2022-10-13T21:26:23.385Z,21.45
2022-10-13T21:28:50.919Z,18.58
2022-10-13T21:31:19.177Z,21.67
2022-10-13T21:33:45.691Z,16.60
2022-10-13T21:36:16.272Z,19.30
2022-10-13T21:38:45.205Z,19.60
2022-10-13T21:41:13.376Z,18.90
2022-10-13T21:43:40.255Z,19.65
2022-10-13T21:46:18.238Z,20.25
2022-10-13T21:48:47.320Z,19.38
2022-10-13T21:51:19.539Z,20.27
2022-10-13T21:53:50.392Z,18.13
2022-10-13T21:56:17.768Z,20.98
2022-10-13T21:58:45.034Z,19.98
2022-10-13T22:01:11.624Z,25.90
2022-10-13T22:03:38.163Z,19.00
2022-10-13T22:06:13.251Z,18.27
2022-10-13T22:08:44.085Z,22.85
2022-10-13T22:11:12.455Z,20.08
2022-10-13T22:13:39.621Z,17.13
2022-10-13T22:16:11.848Z,21.52
2022-10-13T22:18:39.145Z,17.85
2022-10-13T22:21:08.471Z,19.45
2022-10-13T22:23:35.023Z,20.15
2022-10-13T22:26:02.040Z,25.90
2022-10-13T22:28:31.308Z,22.33
2022-10-13T22:31:19.865Z,23.77
2022-10-13T22:33:46.430Z,26.05
2022-10-13T22:36:18.525Z,21.67
2022-10-13T22:38:46.660Z,24.08
2022-10-13T22:41:14.779Z,19.27
2022-10-13T22:43:44.145Z,18.95
2022-10-13T22:46:14.969Z,26.40
2022-10-13T22:48:41.856Z,20.13
2022-10-13T22:51:09.767Z,23.75
2022-10-13T22:53:36.472Z,17.73
2022-10-13T22:56:07.646Z,18.20
2022-10-13T22:58:34.217Z,20.58
2022-10-13T23:01:12.833Z,19.75
2022-10-13T23:03:40.346Z,20.52
2022-10-13T23:06:08.739Z,16.08
2022-10-13T23:08:36.603Z,24.48
2022-10-13T23:11:03.075Z,22.52
2022-10-13T23:13:29.594Z,17.85
2022-10-13T23:16:02.249Z,19.40
2022-10-13T23:18:28.746Z,22.48
2022-10-13T23:20:56.979Z,20.13
2022-10-13T23:23:23.741Z,16.98
2022-10-13T23:25:50.242Z,20.90
2022-10-13T23:28:16.840Z,17.95
2022-10-13T23:30:43.521Z,20.75
2022-10-13T23:33:09.980Z,21.25
2022-10-13T23:35:36.442Z,20.27
2022-10-13T23:38:03.032Z,18.63
2022-10-13T23:40:29.588Z,22.83
2022-10-13T23:42:56.093Z,16.60
2022-10-13T23:45:23.103Z,21.75
2022-10-13T23:47:49.576Z,16.70
2022-10-13T23:50:19.060Z,20.85
2022-10-13T23:52:45.665Z,14.77
2022-10-13T23:55:12.148Z,16.80
2022-10-13T23:57:38.696Z,15.48
